createdAt,value
2022-08-22T00:00:25.608Z,17.58
2022-08-22T00:02:56.172Z,19.81
2022-08-22T00:03:03.387Z,19.41
2022-08-22T00:05:52.200Z,17.55
2022-08-22T00:08:30.355Z,17.53
2022-08-22T00:11:25.829Z,17.51
2022-08-22T00:14:32.466Z,17.47
2022-08-22T00:17:13.207Z,17.43
2022-08-22T00:19:42.812Z,17.41
2022-08-22T00:22:21.385Z,17.35
2022-08-22T00:25:25.605Z,17.32
2022-08-22T00:28:28.278Z,17.28
2022-08-22T00:31:09.140Z,17.24
2022-08-22T00:34:01.480Z,17.19
2022-08-22T00:36:47.938Z,17.15
2022-08-22T00:39:45.046Z,17.12
2022-08-22T00:42:41.198Z,17.08
2022-08-22T00:45:16.621Z,17.06
2022-08-22T00:48:01.771Z,17.01
2022-08-22T00:51:00.794Z,16.97
2022-08-22T00:53:55.215Z,16.91
2022-08-22T00:57:00.878Z,16.83
2022-08-22T00:59:50.389Z,16.80
2022-08-22T01:02:26.256Z,16.70
2022-08-22T01:05:08.098Z,16.67
2022-08-22T01:08:03.366Z,16.60
2022-08-22T01:10:42.912Z,16.54
2022-08-22T01:13:57.105Z,16.44
2022-08-22T01:16:42.563Z,16.38
2022-08-22T01:19:34.263Z,16.35
2022-08-22T01:22:19.171Z,16.29
2022-08-22T01:25:20.918Z,16.25
2022-08-22T01:28:15.993Z,16.19
2022-08-22T01:31:42.545Z,16.12
2022-08-22T01:34:28.674Z,16.06
2022-08-22T01:37:07.638Z,16.01
2022-08-22T01:39:42.935Z,15.97
2022-08-22T01:42:35.851Z,15.93
2022-08-22T01:45:14.557Z,15.88
2022-08-22T01:47:57.043Z,15.84
2022-08-22T01:50:39.711Z,15.77
2022-08-22T01:53:13.821Z,15.70
2022-08-22T01:56:06.489Z,15.67
2022-08-22T01:58:37.235Z,15.59
2022-08-22T02:01:07.322Z,15.55
2022-08-22T02:03:58.076Z,15.50
2022-08-22T02:06:36.750Z,15.46
2022-08-22T02:09:30.476Z,15.40
2022-08-22T02:12:22.070Z,15.30
2022-08-22T02:15:11.062Z,15.26
2022-08-22T02:18:06.111Z,15.20
2022-08-22T02:20:46.291Z,15.17
2022-08-22T02:23:43.946Z,15.15
2022-08-22T02:26:17.692Z,15.13
2022-08-22T02:28:57.119Z,15.12
2022-08-22T02:31:46.325Z,15.11
2022-08-22T02:34:44.430Z,15.06
2022-08-22T02:37:24.516Z,15.03
2022-08-22T02:40:17.162Z,14.97
2022-08-22T02:42:55.259Z,14.92
2022-08-22T02:45:40.241Z,14.87
2022-08-22T02:48:27.810Z,14.82
2022-08-22T02:50:57.462Z,14.75
2022-08-22T02:53:50.206Z,14.71
2022-08-22T02:56:25.030Z,14.68
2022-08-22T02:59:11.513Z,14.64
2022-08-22T03:01:45.537Z,14.58
2022-08-22T03:04:21.650Z,14.55
2022-08-22T03:07:06.894Z,14.50
2022-08-22T03:09:40.225Z,14.44
2022-08-22T03:12:29.806Z,14.34
2022-08-22T03:15:06.130Z,14.27
2022-08-22T03:17:47.864Z,14.27
2022-08-22T03:20:22.313Z,14.30
2022-08-22T03:22:56.446Z,14.24
2022-08-22T03:25:40.501Z,14.23
2022-08-22T03:28:32.448Z,14.18
2022-08-22T03:31:09.794Z,14.18
2022-08-22T03:33:38.119Z,14.14
2022-08-22T03:36:13.014Z,14.12
2022-08-22T03:39:15.319Z,14.11
2022-08-22T03:41:55.331Z,14.06
2022-08-22T03:44:46.329Z,14.03
2022-08-22T03:47:50.598Z,14.00
2022-08-22T03:50:41.863Z,13.97
2022-08-22T03:53:10.340Z,13.92
2022-08-22T03:56:25.102Z,13.80
2022-08-22T03:59:35.735Z,13.81
2022-08-22T04:02:31.513Z,13.76
2022-08-22T04:05:34.767Z,13.80
2022-08-22T04:08:13.399Z,13.77
2022-08-22T04:10:55.148Z,13.78
2022-08-22T04:13:27.782Z,13.79
2022-08-22T04:16:19.223Z,13.76
2022-08-22T04:19:08.045Z,13.78
2022-08-22T04:22:02.691Z,13.75
2022-08-22T04:24:32.352Z,13.73
2022-08-22T04:27:36.568Z,13.61
2022-08-22T04:30:07.072Z,13.53
2022-08-22T04:32:50.059Z,13.50
2022-08-22T04:35:59.668Z,13.50
2022-08-22T04:38:33.870Z,13.48
2022-08-22T04:41:11.148Z,13.47
2022-08-22T04:44:01.977Z,13.47
2022-08-22T04:46:57.776Z,13.48
2022-08-22T04:50:10.046Z,13.48
2022-08-22T04:52:48.837Z,13.45
2022-08-22T04:55:27.040Z,13.43
2022-08-22T04:57:56.579Z,13.40
2022-08-22T05:00:24.493Z,13.36
2022-08-22T05:02:56.783Z,13.38
2022-08-22T05:05:34.634Z,13.38
2022-08-22T05:08:03.345Z,13.41
2022-08-22T05:10:42.882Z,13.40
2022-08-22T05:13:19.986Z,13.36
2022-08-22T05:15:52.333Z,13.29
2022-08-22T05:18:30.466Z,13.32
2022-08-22T05:21:01.183Z,13.21
2022-08-22T05:23:34.466Z,13.30
2022-08-22T05:26:04.647Z,13.37
2022-08-22T05:28:52.877Z,13.42
2022-08-22T05:31:29.433Z,13.46
2022-08-22T05:34:04.583Z,13.53
2022-08-22T05:36:40.250Z,13.63
2022-08-22T05:39:28.196Z,13.83
2022-08-22T05:41:57.103Z,13.99
2022-08-22T05:44:32.344Z,14.16
2022-08-22T05:47:04.610Z,14.37
2022-08-22T05:49:54.119Z,14.57
2022-08-22T05:52:39.041Z,14.84
2022-08-22T05:55:39.806Z,15.02
2022-08-22T05:58:41.556Z,15.21
2022-08-22T06:01:29.363Z,15.39
2022-08-22T06:04:15.427Z,15.60
2022-08-22T06:07:00.139Z,15.78
2022-08-22T06:09:48.214Z,16.02
2022-08-22T06:12:21.935Z,16.24
2022-08-22T06:15:13.396Z,16.49
2022-08-22T06:17:48.659Z,16.72
2022-08-22T06:20:24.126Z,16.99
2022-08-22T06:22:56.994Z,17.23
2022-08-22T06:25:32.642Z,17.38
2022-08-22T06:28:06.449Z,17.64
2022-08-22T06:30:35.549Z,17.75
2022-08-22T06:33:08.403Z,18.03
2022-08-22T06:36:08.155Z,18.32
2022-08-22T06:39:06.583Z,18.54
2022-08-22T06:41:39.401Z,18.44
2022-08-22T06:44:08.036Z,18.80
2022-08-22T06:46:37.523Z,19.18
2022-08-22T06:49:07.464Z,19.50
2022-08-22T06:51:37.713Z,19.73
2022-08-22T06:54:06.816Z,19.81
2022-08-22T06:56:43.516Z,20.10
2022-08-22T06:59:15.873Z,20.33
2022-08-22T07:01:53.646Z,20.55
2022-08-22T07:04:26.521Z,20.64
2022-08-22T07:06:56.348Z,20.80
2022-08-22T07:09:31.094Z,20.97
2022-08-22T07:12:01.449Z,21.20
2022-08-22T07:14:38.553Z,21.51
2022-08-22T07:17:09.262Z,21.71
2022-08-22T07:19:45.550Z,22.16
2022-08-22T07:22:14.917Z,22.03
2022-08-22T07:24:55.806Z,22.53
2022-08-22T07:27:31.465Z,23.29
2022-08-22T07:30:27.406Z,22.82
2022-08-22T07:33:25.817Z,22.92
2022-08-22T07:35:53.528Z,23.11
2022-08-22T07:38:20.375Z,23.26
2022-08-22T07:40:59.725Z,23.29
2022-08-22T07:43:30.137Z,24.39
2022-08-22T07:46:01.311Z,24.77
2022-08-22T07:48:33.996Z,25.11
2022-08-22T07:51:01.068Z,25.63
2022-08-22T07:53:39.684Z,25.52
2022-08-22T07:56:09.810Z,25.51
2022-08-22T07:58:40.538Z,25.67
2022-08-22T08:01:08.866Z,25.95
2022-08-22T08:03:36.208Z,25.26
2022-08-22T08:06:04.206Z,25.22
2022-08-22T08:08:38.998Z,25.35
2022-08-22T08:11:10.078Z,24.72
2022-08-22T08:13:41.246Z,25.46
2022-08-22T08:16:15.707Z,25.70
2022-08-22T08:18:45.704Z,25.66
2022-08-22T08:21:37.127Z,25.55
2022-08-22T08:24:08.196Z,26.42
2022-08-22T08:27:01.888Z,27.13
2022-08-22T08:29:29.827Z,27.65
2022-08-22T08:31:58.503Z,27.35
2022-08-22T08:34:27.374Z,28.03
2022-08-22T08:37:02.902Z,27.27
2022-08-22T08:39:38.760Z,27.33
2022-08-22T08:42:56.638Z,27.05
2022-08-22T08:45:56.407Z,28.08
2022-08-22T08:48:59.678Z,28.33
2022-08-22T08:51:56.146Z,27.13
2022-08-22T08:54:41.030Z,27.50
2022-08-22T08:57:36.239Z,28.18
2022-08-22T09:00:23.349Z,28.95
2022-08-22T09:03:30.957Z,29.21
2022-08-22T09:06:42.598Z,28.66
2022-08-22T09:09:30.748Z,28.63
2022-08-22T09:12:12.516Z,28.74
2022-08-22T09:14:48.225Z,28.72
2022-08-22T09:17:38.304Z,28.84
2022-08-22T09:20:17.945Z,29.21
2022-08-22T09:23:04.521Z,30.27
2022-08-22T09:25:46.194Z,29.96
2022-08-22T09:28:17.261Z,30.50
2022-08-22T09:31:16.852Z,30.87
2022-08-22T09:34:05.338Z,31.76
2022-08-22T09:36:44.008Z,31.63
2022-08-22T09:39:24.588Z,30.86
2022-08-22T09:42:23.770Z,31.53
2022-08-22T09:45:28.821Z,31.96
2022-08-22T09:48:07.652Z,31.97
2022-08-22T09:50:41.386Z,32.25
2022-08-22T09:53:21.378Z,32.70
2022-08-22T09:55:54.432Z,32.61
2022-08-22T09:58:28.341Z,32.61
2022-08-22T10:01:00.538Z,32.36
2022-08-22T10:03:45.599Z,32.09
2022-08-22T10:06:20.722Z,32.13
2022-08-22T10:09:09.491Z,32.94
2022-08-22T10:11:49.778Z,33.58
2022-08-22T10:14:38.201Z,32.87
2022-08-22T10:17:32.622Z,33.50
2022-08-22T10:20:17.432Z,34.52
2022-08-22T10:23:21.042Z,33.92
2022-08-22T10:26:22.918Z,34.05
2022-08-22T10:29:17.727Z,34.10
2022-08-22T10:32:01.364Z,34.46
2022-08-22T10:34:46.401Z,34.51
2022-08-22T10:37:37.383Z,34.95
2022-08-22T10:40:37.883Z,34.42
2022-08-22T10:43:21.049Z,34.83
2022-08-22T10:46:06.800Z,33.73
2022-08-22T10:48:54.317Z,34.11
2022-08-22T10:51:33.719Z,33.99
2022-08-22T10:54:24.857Z,33.89
2022-08-22T10:57:24.780Z,34.12
2022-08-22T11:00:31.035Z,34.06
2022-08-22T11:03:20.016Z,34.35
2022-08-22T11:05:50.832Z,35.14
2022-08-22T11:08:26.671Z,35.68
2022-08-22T11:11:09.495Z,35.33
2022-08-22T11:13:54.295Z,35.67
2022-08-22T11:16:27.010Z,35.15
2022-08-22T11:19:27.561Z,33.73
2022-08-22T11:22:13.845Z,32.65
2022-08-22T11:25:36.009Z,33.16
2022-08-22T11:28:43.346Z,34.82
2022-08-22T11:31:36.740Z,34.03
2022-08-22T11:34:29.747Z,35.18
2022-08-22T11:37:11.584Z,35.40
2022-08-22T11:40:16.808Z,33.87
2022-08-22T11:42:56.800Z,34.42
2022-08-22T11:45:31.317Z,34.75
2022-08-22T11:48:07.801Z,34.51
2022-08-22T11:50:42.198Z,35.59
2022-08-22T11:53:16.829Z,35.61
2022-08-22T11:56:08.432Z,35.23
2022-08-22T11:58:43.102Z,35.92
2022-08-22T12:01:19.655Z,35.71
2022-08-22T12:04:04.197Z,35.68
2022-08-22T12:06:58.576Z,35.98
2022-08-22T12:09:58.192Z,35.27
2022-08-22T12:12:28.243Z,34.43
2022-08-22T12:15:02.482Z,33.42
2022-08-22T12:17:55.765Z,32.77
2022-08-22T12:20:45.582Z,31.91
2022-08-22T12:23:49.778Z,31.86
2022-08-22T12:26:35.845Z,32.23
2022-08-22T12:29:17.608Z,33.17
2022-08-22T12:32:27.432Z,33.68
2022-08-22T12:35:13.873Z,34.19
2022-08-22T12:38:04.515Z,34.36
2022-08-22T12:41:28.079Z,34.78
2022-08-22T12:44:19.941Z,35.83
2022-08-22T12:46:55.491Z,35.92
2022-08-22T12:49:52.252Z,35.49
2022-08-22T12:52:31.192Z,35.74
2022-08-22T12:55:36.628Z,35.89
2022-08-22T12:58:28.549Z,35.69
2022-08-22T13:01:06.348Z,35.85
2022-08-22T13:03:50.337Z,34.97
2022-08-22T13:06:35.051Z,35.28
2022-08-22T13:09:28.547Z,35.15
2022-08-22T13:12:02.409Z,35.25
2022-08-22T13:14:34.048Z,35.26
2022-08-22T13:17:23.858Z,35.24
2022-08-22T13:20:08.680Z,35.12
2022-08-22T13:22:40.512Z,34.65
2022-08-22T13:25:26.593Z,34.58
2022-08-22T13:28:00.897Z,34.03
2022-08-22T13:30:32.884Z,34.37
2022-08-22T13:33:16.340Z,34.00
2022-08-22T13:35:52.126Z,34.62
2022-08-22T13:38:38.226Z,35.09
2022-08-22T13:41:19.048Z,35.65
2022-08-22T13:44:26.729Z,36.16
2022-08-22T13:47:13.842Z,35.55
2022-08-22T13:49:48.991Z,35.70
2022-08-22T13:52:30.561Z,35.68
2022-08-22T13:55:15.420Z,36.06
2022-08-22T13:57:45.587Z,34.61
2022-08-22T14:00:22.381Z,34.97
2022-08-22T14:03:05.430Z,35.14
2022-08-22T14:05:40.548Z,34.52
2022-08-22T14:08:19.433Z,34.84
2022-08-22T14:10:55.095Z,35.10
2022-08-22T14:13:47.674Z,35.00
2022-08-22T14:16:25.679Z,35.02
2022-08-22T14:18:57.904Z,34.69
2022-08-22T14:21:40.246Z,34.46
2022-08-22T14:24:45.603Z,34.57
2022-08-22T14:27:15.932Z,34.61
2022-08-22T14:30:06.054Z,34.92
2022-08-22T14:32:44.943Z,35.01
2022-08-22T14:35:23.387Z,35.00
2022-08-22T14:38:17.227Z,34.73
2022-08-22T14:40:45.526Z,34.65
2022-08-22T14:43:40.615Z,34.24
2022-08-22T14:46:14.424Z,34.44
2022-08-22T14:49:26.740Z,33.97
2022-08-22T14:52:19.901Z,33.84
2022-08-22T14:54:47.295Z,34.12
2022-08-22T14:57:20.093Z,34.12
2022-08-22T14:59:50.579Z,34.10
2022-08-22T15:02:31.726Z,33.69
2022-08-22T15:05:13.470Z,33.70
2022-08-22T15:07:40.561Z,33.16
2022-08-22T15:10:22.219Z,33.43
2022-08-22T15:12:51.410Z,33.53
2022-08-22T15:15:30.229Z,33.17
2022-08-22T15:17:57.163Z,32.62
2022-08-22T15:20:36.223Z,32.72
2022-08-22T15:23:16.309Z,32.91
2022-08-22T15:25:47.054Z,33.02
2022-08-22T15:28:17.187Z,33.11
2022-08-22T15:30:57.715Z,33.19
2022-08-22T15:33:32.444Z,32.93
2022-08-22T15:36:11.441Z,32.62
2022-08-22T15:38:48.753Z,32.60
2022-08-22T15:41:36.325Z,32.32
2022-08-22T15:44:06.427Z,32.28
2022-08-22T15:46:39.929Z,31.80
2022-08-22T15:49:21.421Z,31.72
2022-08-22T15:52:03.073Z,31.57
2022-08-22T15:54:54.568Z,31.43
2022-08-22T15:57:31.821Z,31.10
2022-08-22T16:00:04.470Z,31.08
2022-08-22T16:03:01.403Z,30.81
2022-08-22T16:05:34.675Z,30.16
2022-08-22T16:08:06.661Z,30.03
2022-08-22T16:10:40.595Z,30.10
2022-08-22T16:13:30.267Z,30.17
2022-08-22T16:16:25.786Z,30.04
2022-08-22T16:18:52.441Z,30.13
2022-08-22T16:21:22.361Z,29.96
2022-08-22T16:23:49.743Z,29.90
2022-08-22T16:26:31.756Z,29.87
2022-08-22T16:29:14.717Z,29.62
2022-08-22T16:31:44.306Z,29.43
2022-08-22T16:34:17.295Z,29.24
2022-08-22T16:37:08.839Z,29.25
2022-08-22T16:39:54.099Z,29.19
2022-08-22T16:42:23.833Z,29.20
2022-08-22T16:45:02.441Z,29.24
2022-08-22T16:47:32.651Z,29.06
2022-08-22T16:50:23.910Z,28.85
2022-08-22T16:53:05.271Z,28.77
2022-08-22T16:55:32.634Z,28.54
2022-08-22T16:58:23.417Z,28.47
2022-08-22T17:00:57.938Z,28.34
2022-08-22T17:03:43.818Z,28.37
2022-08-22T17:06:20.800Z,28.39
2022-08-22T17:08:57.254Z,28.35
2022-08-22T17:11:23.970Z,28.38
2022-08-22T17:14:16.103Z,28.40
2022-08-22T17:17:04.085Z,28.37
2022-08-22T17:19:59.503Z,28.33
2022-08-22T17:22:29.328Z,28.23
2022-08-22T17:25:19.210Z,28.18
2022-08-22T17:27:52.686Z,28.06
2022-08-22T17:30:54.496Z,27.94
2022-08-22T17:33:51.914Z,27.78
2022-08-22T17:36:34.465Z,27.63
2022-08-22T17:39:06.894Z,27.46
2022-08-22T17:41:46.003Z,27.33
2022-08-22T17:44:18.544Z,27.14
2022-08-22T17:46:52.471Z,27.05
2022-08-22T17:49:45.217Z,26.88
2022-08-22T17:52:33.736Z,26.83
2022-08-22T17:55:21.880Z,26.75
2022-08-22T17:57:55.625Z,26.66
2022-08-22T18:00:35.610Z,26.60
2022-08-22T18:03:08.841Z,26.50
2022-08-22T18:05:53.149Z,26.40
2022-08-22T18:11:20.333Z,26.17
2022-08-22T18:14:05.758Z,26.07
2022-08-22T18:16:41.551Z,25.94
2022-08-22T18:20:03.119Z,25.81
2022-08-22T18:22:46.629Z,25.66
2022-08-22T18:25:19.343Z,25.51
2022-08-22T18:27:55.695Z,25.40
2022-08-22T18:30:28.283Z,25.27
2022-08-22T18:33:16.932Z,25.16
2022-08-22T18:35:53.855Z,25.03
2022-08-22T18:38:59.742Z,24.90
2022-08-22T18:41:43.046Z,24.75
2022-08-22T18:44:13.182Z,24.64
2022-08-22T18:46:52.043Z,24.53
2022-08-22T18:49:19.523Z,24.40
2022-08-22T18:52:05.449Z,24.25
2022-08-22T18:54:31.977Z,24.10
2022-08-22T18:57:22.721Z,23.98
2022-08-22T19:00:17.091Z,23.80
2022-08-22T19:02:55.845Z,23.62
2022-08-22T19:05:22.714Z,23.54
2022-08-22T19:08:14.406Z,23.46
2022-08-22T19:11:14.779Z,23.36
2022-08-22T19:14:15.602Z,23.23
2022-08-22T19:17:06.139Z,23.02
2022-08-22T19:20:13.212Z,22.98
2022-08-22T19:22:40.274Z,22.89
2022-08-22T19:25:12.531Z,22.83
2022-08-22T19:27:44.595Z,22.73
2022-08-22T19:30:29.274Z,22.63
2022-08-22T19:32:59.813Z,22.53
2022-08-22T19:35:45.582Z,22.42
2022-08-22T19:38:32.258Z,22.29
2022-08-22T19:40:59.184Z,22.17
2022-08-22T19:43:40.684Z,22.08
2022-08-22T19:46:11.954Z,22.00
2022-08-22T19:51:15.741Z,21.79
2022-08-22T19:53:45.982Z,21.69
2022-08-22T19:56:30.564Z,21.59
2022-08-22T19:59:22.767Z,21.52
2022-08-22T20:01:58.399Z,21.42
2022-08-22T20:04:37.141Z,21.23
2022-08-22T20:07:27.903Z,21.10
2022-08-22T20:10:18.204Z,20.93
2022-08-22T20:12:54.157Z,20.93
2022-08-22T20:15:24.368Z,20.89
2022-08-22T20:20:58.295Z,20.76
2022-08-22T20:23:29.615Z,20.66
2022-08-22T20:25:58.145Z,20.58
2022-08-22T20:28:34.082Z,20.51
2022-08-22T20:31:04.141Z,20.41
2022-08-22T20:33:39.008Z,20.32
2022-08-22T20:36:18.530Z,20.35
2022-08-22T20:39:00.583Z,20.27
2022-08-22T20:41:35.595Z,20.12
2022-08-22T20:44:17.686Z,20.12
2022-08-22T20:46:55.799Z,20.07
2022-08-22T20:49:30.024Z,20.02
2022-08-22T20:52:07.395Z,19.98
2022-08-22T20:54:39.815Z,19.92
2022-08-22T20:57:21.527Z,19.85
2022-08-22T20:59:57.784Z,19.79
2022-08-22T21:02:34.155Z,19.72
2022-08-22T21:05:00.758Z,19.64
2022-08-22T21:07:38.492Z,19.57
2022-08-22T21:10:45.054Z,19.49
2022-08-22T21:13:21.669Z,19.37
2022-08-22T21:15:55.183Z,19.26
2022-08-22T21:18:37.788Z,19.24
2022-08-22T21:21:34.730Z,19.07
2022-08-22T21:24:04.540Z,19.03
2022-08-22T21:26:46.216Z,18.98
2022-08-22T21:29:12.901Z,18.94
2022-08-22T21:31:45.587Z,18.90
2022-08-22T21:34:14.983Z,18.83
2022-08-22T21:36:41.837Z,18.76
2022-08-22T21:39:22.257Z,18.74
2022-08-22T21:42:11.984Z,18.67
2022-08-22T21:44:42.318Z,18.56
2022-08-22T21:47:32.337Z,18.50
2022-08-22T21:50:03.079Z,18.42
2022-08-22T21:52:31.894Z,18.38
2022-08-22T21:55:24.583Z,18.36
2022-08-22T21:58:06.469Z,18.31
2022-08-22T22:00:54.502Z,18.25
2022-08-22T22:03:36.338Z,18.18
2022-08-22T22:06:05.458Z,18.12
2022-08-22T22:08:33.444Z,18.07
2022-08-22T22:11:04.722Z,18.03
2022-08-22T22:13:35.458Z,17.98
2022-08-22T22:16:02.658Z,17.94
2022-08-22T22:18:33.970Z,17.91
2022-08-22T22:21:01.347Z,17.85
2022-08-22T22:23:28.524Z,17.78
2022-08-22T22:25:57.738Z,17.73
2022-08-22T22:28:30.121Z,17.71
2022-08-22T22:30:56.771Z,17.68
2022-08-22T22:33:26.614Z,17.61
2022-08-22T22:35:55.926Z,17.55
2022-08-22T22:38:24.262Z,17.50
2022-08-22T22:40:51.929Z,17.44
2022-08-22T22:43:18.942Z,17.38
2022-08-22T22:45:45.562Z,17.35
2022-08-22T22:48:17.545Z,17.34
2022-08-22T22:50:50.802Z,17.29
2022-08-22T22:53:19.486Z,17.19
2022-08-22T22:55:59.993Z,17.15
2022-08-22T22:58:27.947Z,17.11
2022-08-22T23:00:55.321Z,17.06
2022-08-22T23:03:22.198Z,16.96
2022-08-22T23:05:48.888Z,16.90
2022-08-22T23:08:15.458Z,16.85
2022-08-22T23:10:42.069Z,16.81
2022-08-22T23:13:08.909Z,16.76
2022-08-22T23:15:37.078Z,16.75
2022-08-22T23:18:03.775Z,16.72
2022-08-22T23:20:30.468Z,16.68
2022-08-22T23:22:57.089Z,16.63
2022-08-22T23:25:23.695Z,16.60
2022-08-22T23:27:52.546Z,16.50
2022-08-22T23:30:20.146Z,16.44
2022-08-22T23:32:46.741Z,16.35
2022-08-22T23:35:13.607Z,16.17
2022-08-22T23:37:40.204Z,16.14
2022-08-22T23:40:08.670Z,16.19
2022-08-22T23:42:35.335Z,16.17
2022-08-22T23:45:02.067Z,16.13
2022-08-22T23:47:28.668Z,16.09
2022-08-22T23:49:55.293Z,16.04
2022-08-22T23:52:24.850Z,16.03
2022-08-22T23:54:54.553Z,16.03
2022-08-22T23:57:26.458Z,16.02
2022-08-22T23:59:57.897Z,16.00
